• Join FlightAware (Why Join?)
  • Login
  • US Flag 
06:13AM EST


 

Airport Tracker/Info


-or-


 

Live Flight TrackerFlight Track Log ✈ TAM3782 ✈ 11-Nov-2013 ✈ SBBR / BSB - SBJP / JPA

Flight Track Log - Related Links

Times and Time Zones

All times are in EST time to prevent confusion due to time zone crossing. See the TAM3782 flight status page for this flight to view local times or setup timezone preferences in your user account.

Time Position Orientation Groundspeed Altitude Reporting Facility
EST Latitude Longitude Course Direction KTS MPH feet Rate Location/Type
08:06PM -15.8640 -47.9310 316° Northwest 174 200 3,900  Level FlightAware
08:06PM -15.8650 -47.9440 265° West 172 198 4,600 1,957 Climbing FlightAware
08:06PM -15.8650 -47.9700 270° West 181 208 5,400 1,500 Climbing FlightAware
08:07PM -15.8450 -47.9820 330° Northwest 181 208 6,100 1,200 Climbing FlightAware
08:07PM -15.8260 -47.9830 357° North 203 234 6,400 800 Climbing FlightAware
08:08PM -15.8020 -47.9840 358° North 235 270 6,700 873 Climbing FlightAware
08:08PM -15.7660 -47.9860 357° North 274 315 7,200 1,662 Climbing FlightAware
08:09PM -15.7190 -47.9890 356° North 292 336 8,500 2,400 Climbing FlightAware
08:09PM -15.6990 -47.9910 355° North 294 338 9,200 2,550 Climbing FlightAware
08:09PM -15.6660 -47.9830 13° North 291 335 10,200 1,800 Climbing FlightAware
08:10PM -15.6420 -47.9570 46° Northeast 308 354 10,700 1,360 Climbing FlightAware
08:11PM -15.5930 -47.8950 51° Northeast 349 402 11,900 1,867 Climbing FlightAware
08:11PM -15.5510 -47.8450 49° Northeast 353 406 13,500 2,486 Climbing FlightAware
08:12PM -15.5190 -47.8050 50° Northeast 353 406 14,800 2,308 Climbing FlightAware
08:12PM -15.4810 -47.7580 50° Northeast 361 415 16,000 1,832 Climbing FlightAware
08:13PM -15.4180 -47.6740 52° Northeast 378 435 17,700 1,800 Climbing FlightAware
08:14PM -15.3890 -47.6090 65° Northeast 379 436 19,000 2,274 Climbing FlightAware
08:15PM -15.3500 -47.5210 65° Northeast 362 417 21,300 2,175 Climbing FlightAware
08:15PM -15.3330 -47.4830 65° Northeast 366 421 21,900 1,440 Climbing FlightAware
08:16PM -15.3130 -47.4410 64° Northeast 374 430 22,500 1,059 Climbing FlightAware
08:17PM -15.2680 -47.3400 65° Northeast 397 457 23,400 1,187 Climbing FlightAware
08:17PM -15.2440 -47.2880 64° Northeast 397 457 24,300 1,457 Climbing FlightAware
08:18PM -15.2140 -47.2210 65° Northeast 400 460 25,100 1,217 Climbing FlightAware
08:18PM -15.1900 -47.1690 64° Northeast 405 466 25,700 1,169 Climbing FlightAware
08:19PM -15.1550 -47.0920 65° Northeast 413 475 26,600 1,250 Climbing FlightAware
08:20PM -15.1130 -47.0000 65° Northeast 417 480 27,700 1,139 Climbing FlightAware
08:20PM -15.0880 -46.9440 65° Northeast 426 490 28,100 918 Climbing FlightAware
08:21PM -15.0430 -46.8470 64° Northeast 436 502 29,000 1,029 Climbing FlightAware
08:22PM -14.9960 -46.7430 65° Northeast 442 509 29,900 960 Climbing FlightAware
08:23PM -14.9540 -46.6510 65° Northeast 447 514 30,600 1,040 Climbing FlightAware
08:23PM -14.9290 -46.5980 64° Northeast 451 519 31,200 1,120 Climbing FlightAware
08:24PM -14.8850 -46.5010 65° Northeast 451 519 32,000 686 Climbing FlightAware
08:25PM -14.8350 -46.3930 64° Northeast 468 539 32,400 600 Climbing FlightAware
08:26PM -14.8020 -46.3210 65° Northeast 471 542 32,900 733 Climbing FlightAware
08:27PM -14.7500 -46.2070 65° Northeast 477 549 33,500 741 Climbing FlightAware
08:27PM -14.7260 -46.1570 64° Northeast 478 550 33,900 831 Climbing FlightAware
08:28PM -14.6920 -46.0810 65° Northeast 481 554 34,400 844 Climbing FlightAware
08:28PM -14.6670 -46.0280 64° Northeast 480 552 34,800 831 Climbing FlightAware
08:29PM -14.6300 -45.9490 64° Northeast 481 554 35,300 771 Climbing FlightAware
08:29PM -14.6010 -45.8860 65° Northeast 483 556 35,700 738 Climbing FlightAware
08:30PM -14.5640 -45.8060 64° Northeast 486 559 36,100 686 Climbing FlightAware
08:31PM -14.5310 -45.7340 65° Northeast 484 557 36,500 635 Climbing FlightAware
08:31PM -14.4830 -45.6290 65° Northeast 487 560 37,000 375 Climbing FlightAware
08:32PM -14.4560 -45.5720 64° Northeast 487 560 37,000  Level FlightAware
08:33PM -14.3930 -45.4370 64° Northeast 482 555 37,000  Level FlightAware
08:34PM -14.3370 -45.3160 64° Northeast 481 554 37,000  Level FlightAware
08:34PM -14.3030 -45.2450 64° Northeast 481 554 37,000  Level FlightAware
08:36PM -14.2400 -45.1090 64° Northeast 480 552 37,000  Level FlightAware
08:36PM -14.2040 -45.0320 64° Northeast 477 549 37,000  Level FlightAware
08:37PM -14.1520 -44.9230 64° Northeast 477 549 37,000  Level FlightAware
08:38PM -14.1230 -44.8600 65° Northeast 477 549 37,000  Level FlightAware
08:39PM -14.0920 -44.7960 63° Northeast 477 549 37,000  Level FlightAware
08:39PM -14.0510 -44.7090 64° Northeast 477 549 37,000  Level FlightAware
08:40PM -14.0300 -44.6650 64° Northeast 477 549 37,000  Level FlightAware
08:40PM -14.0010 -44.6030 64° Northeast 477 549 37,000  Level FlightAware
08:41PM -13.9700 -44.5390 63° Northeast 477 549 37,000  Level FlightAware
08:41PM -13.9510 -44.4970 65° Northeast 477 549 37,000  Level FlightAware
08:42PM -13.9210 -44.4340 64° Northeast 477 549 37,000  Level FlightAware
08:43PM -13.8810 -44.3490 64° Northeast 477 549 37,000  Level FlightAware
08:43PM -13.8610 -44.3080 63° Northeast 477 549 37,000  Level FlightAware
08:44PM -13.8300 -44.2420 64° Northeast 477 549 37,000  Level FlightAware
08:45PM -13.7800 -44.1370 64° Northeast 477 549 37,000  Level FlightAware
08:45PM -13.7610 -44.0960 64° Northeast 477 549 37,000  Level FlightAware
08:46PM -13.7110 -43.9920 64° Northeast 477 549 37,000  Level FlightAware
08:49PM -13.5584 -43.7724 54° Northeast  Level Estimated
08:50PM -13.4962 -43.6829 54° Northeast  Level Estimated
08:51PM -13.4339 -43.5936 54° Northeast  Level Estimated
08:52PM -13.3716 -43.5042 54° Northeast  Level Estimated
08:53PM -13.3093 -43.4150 54° Northeast  Level Estimated
08:54PM -13.2469 -43.3257 54° Northeast  Level Estimated
08:55PM -13.1845 -43.2365 54° Northeast  Level Estimated
08:56PM -13.1221 -43.1474 54° Northeast  Level Estimated
08:57PM -13.0596 -43.0583 54° Northeast  Level Estimated
08:58PM -12.9971 -42.9692 54° Northeast  Level Estimated
08:59PM -12.9346 -42.8802 54° Northeast  Level Estimated
09:00PM -12.8720 -42.7912 54° Northeast  Level Estimated
09:01PM -12.8095 -42.7023 54° Northeast  Level Estimated
09:02PM -12.7469 -42.6134 54° Northeast  Level Estimated
09:03PM -12.6842 -42.5246 54° Northeast  Level Estimated
09:04PM -12.6215 -42.4358 54° Northeast  Level Estimated
09:05PM -12.5588 -42.3470 54° Northeast  Level Estimated
09:06PM -12.4961 -42.2583 54° Northeast  Level Estimated
09:07PM -12.4333 -42.1697 54° Northeast  Level Estimated
09:08PM -12.3706 -42.0811 54° Northeast  Level Estimated
09:09PM -12.3077 -41.9925 54° Northeast  Level Estimated
09:10PM -12.2449 -41.9039 54° Northeast  Level Estimated
09:11PM -12.1820 -41.8154 54° Northeast  Level Estimated
09:12PM -12.1191 -41.7270 54° Northeast  Level Estimated
09:13PM -12.0562 -41.6386 54° Northeast  Level Estimated
09:13PM -11.7300 -40.7970 54° Northeast 473 544 37,000  Level FlightAware
09:14PM -11.6730 -40.7020 59° Northeast 471 542 37,000  Level FlightAware
09:15PM -11.6140 -40.6040 58° Northeast 471 542 37,000  Level FlightAware
09:15PM -11.5520 -40.4990 59° Northeast 469 540 37,000  Level FlightAware
09:16PM -11.5010 -40.4150 58° Northeast 468 539 37,000  Level FlightAware
09:17PM -11.4620 -40.3480 59° Northeast 466 536 37,000  Level FlightAware
09:18PM -11.3960 -40.2390 58° Northeast 465 535 37,000  Level FlightAware
09:19PM -11.3240 -40.1180 59° Northeast 467 537 37,000  Level FlightAware
09:19PM -11.3060 -40.0890 58° Northeast 468 539 37,000  Level FlightAware
09:20PM -11.2410 -39.9800 59° Northeast 469 540 37,000  Level FlightAware
09:21PM -11.2040 -39.9200 58° Northeast 470 541 37,000  Level FlightAware
09:21PM -11.1460 -39.8220 59° Northeast 472 543 37,000  Level FlightAware
09:22PM -11.0850 -39.7220 58° Northeast 471 542 37,000  Level FlightAware
09:23PM -11.0550 -39.6710 59° Northeast 471 542 37,000  Level FlightAware
09:24PM -10.9890 -39.5620 58° Northeast 470 541 37,000  Level FlightAware
09:24PM -10.9450 -39.4890 58° Northeast 469 540 37,000  Level FlightAware
09:25PM -10.8790 -39.3790 59° Northeast 469 540 37,000  Level FlightAware
09:26PM -10.8330 -39.3030 58° Northeast 469 540 37,000  Level FlightAware
09:27PM -10.7690 -39.1970 58° Northeast 471 542 37,000  Level FlightAware
09:27PM -10.7440 -39.1560 58° Northeast 472 543 37,000  Level FlightAware
09:28PM -10.6810 -39.0530 58° Northeast 473 544 37,000  Level FlightAware
09:29PM -10.6490 -39.0000 58° Northeast 472 543 37,000  Level FlightAware
09:30PM -10.5890 -38.9010 58° Northeast 474 545 37,000  Level FlightAware
09:30PM -10.5380 -38.8170 58° Northeast 473 544 37,000  Level FlightAware
09:31PM -10.5000 -38.7540 58° Northeast 474 545 37,000  Level FlightAware
09:32PM -10.4510 -38.6750 58° Northeast 473 544 37,000  Level FlightAware
09:32PM -10.4100 -38.6070 58° Northeast 473 544 37,000  Level FlightAware
09:33PM -10.3660 -38.5350 58° Northeast 471 542 37,000  Level FlightAware
09:34PM -10.3040 -38.4330 58° Northeast 472 543 37,000  Level FlightAware
09:34PM -10.2550 -38.3520 58° Northeast 472 543 37,000  Level FlightAware
09:35PM -10.1990 -38.2600 58° Northeast 472 543 37,000  Level FlightAware
09:36PM -10.1660 -38.2060 58° Northeast 473 544 37,000  Level FlightAware
09:36PM -10.1250 -38.1400 58° Northeast 473 544 37,000  Level FlightAware
09:37PM -10.0900 -38.0830 58° Northeast 473 544 37,000  Level FlightAware
09:38PM -10.0110 -37.9530 58° Northeast 473 544 37,000  Level FlightAware
09:39PM -9.9700 -37.8850 59° Northeast 470 541 37,000  Level FlightAware
09:40PM -9.9090 -37.7870 58° Northeast 470 541 37,000  Level FlightAware
09:40PM -9.8600 -37.7070 58° Northeast 455 524 37,000  Level FlightAware
09:41PM -9.7910 -37.5940 58° Northeast 462 532 37,000  Level FlightAware
09:42PM -9.7030 -37.4510 58° Northeast 471 542 37,000  Level FlightAware
09:43PM -9.6630 -37.3860 58° Northeast 461 531 37,000  Level FlightAware
09:44PM -9.6130 -37.3050 58° Northeast 460 529 37,000  Level FlightAware
09:44PM -9.5830 -37.2550 59° Northeast 460 529 37,000  Level FlightAware
09:45PM -9.5390 -37.1850 57° Northeast 461 531 37,000  Level FlightAware
09:46PM -9.4770 -37.0850 58° Northeast 460 529 37,000  Level FlightAware
09:47PM -9.4040 -36.9660 58° Northeast 460 529 37,000  Level FlightAware
09:48PM -9.3470 -36.8720 58° Northeast 461 531 37,000  Level FlightAware
09:48PM -9.3010 -36.7990 57° Northeast 461 531 37,000  Level FlightAware
09:49PM -9.2300 -36.6840 58° Northeast 461 531 37,000  Level FlightAware
09:50PM -9.1910 -36.6210 58° Northeast 462 532 37,000  Level FlightAware
09:51PM -9.1300 -36.5230 58° Northeast 461 531 37,000  Level FlightAware
09:52PM -9.0750 -36.4340 58° Northeast 462 532 37,000  Level FlightAware
09:53PM -9.0160 -36.3380 58° Northeast 460 529 37,000  Level FlightAware
09:53PM -8.9750 -36.2730 57° Northeast 459 528 37,000  Level FlightAware
09:54PM -8.9170 -36.1780 58° Northeast 460 529 37,000  Level FlightAware
09:55PM -8.8570 -36.0820 58° Northeast 458 527 37,000  Level FlightAware
09:55PM -8.8240 -36.0290 58° Northeast 457 526 37,000  Level FlightAware
09:56PM -8.7860 -35.9680 58° Northeast 457 526 37,000  Level FlightAware
09:57PM -8.7510 -35.9120 58° Northeast 457 526 37,000  Level FlightAware
09:58PM -8.6750 -35.7890 58° Northeast 457 526 37,000 -496 Level FlightAware
09:59PM -8.6140 -35.6910 58° Northeast 465 535 36,000 -1,965 Descending FlightAware
10:00PM -8.5460 -35.5830 58° Northeast 471 542 33,300 -2,474 Descending FlightAware
10:00PM -8.4820 -35.4800 58° Northeast 454 522 31,300 -1,684 Descending FlightAware
10:01PM -8.4210 -35.3830 58° Northeast 422 486 30,100 -1,600 Descending FlightAware
10:02PM -8.3540 -35.2750 58° Northeast 409 471 28,100 -1,807 Descending FlightAware
10:03PM -8.3330 -35.2430 56° Northeast 399 459 27,600 -1,537 Descending FlightAware
10:04PM -8.2770 -35.1530 58° Northeast 380 437 26,000 -1,692 Descending FlightAware
10:04PM -8.2600 -35.1250 58° Northeast 380 437 25,400 -2,000 Descending FlightAware
10:05PM -8.2290 -35.0760 57° Northeast 375 432 24,400 -1,608 Descending FlightAware
10:06PM -8.1750 -34.9890 58° Northeast 359 413 22,800 -1,642 Descending FlightAware
10:06PM -8.1240 -34.9390 44° Northeast 356 410 21,500 -1,789 Descending FlightAware
10:07PM -8.0990 -34.9360 North 355 409 21,100 -1,474 Descending FlightAware
10:07PM -8.0400 -34.9480 349° North 347 399 20,100 -1,562 Descending FlightAware
10:08PM -7.9860 -34.9590 349° North 339 390 19,200 -1,753 Descending FlightAware
10:09PM -7.8970 -34.9780 348° North 339 390 17,500 -1,733 Descending FlightAware
10:09PM -7.8420 -34.9890 349° North 333 383 16,600 -1,390 Descending FlightAware
10:10PM -7.7690 -35.0040 348° North 321 369 15,600 -1,292 Descending FlightAware
10:10PM -7.7480 -35.0080 349° North 319 367 15,200 -1,481 Descending FlightAware
10:12PM -7.6620 -35.0270 348° North 314 361 13,700 -1,404 Descending FlightAware
10:12PM -7.6140 -35.0370 348° North 311 358 13,000 -876 Descending FlightAware
10:13PM -7.5380 -35.0520 349° North 271 312 12,400 -971 Descending FlightAware
10:14PM -7.4820 -35.0640 348° North 263 303 11,300 -1,358 Descending FlightAware
10:15PM -7.4120 -35.0790 348° North 259 298 10,000 -1,333 Descending FlightAware
10:15PM -7.3850 -35.0840 350° North 254 292 9,500 -1,102 Descending FlightAware
10:16PM -7.3570 -35.0900 348° North 246 283 9,100 -1,102 Descending FlightAware
10:16PM -7.3300 -35.0960 348° North 242 278 8,600 -1,125 Descending FlightAware
10:16PM -7.3040 -35.1010 349° North 235 270 8,200 -980 Descending FlightAware
10:17PM -7.2790 -35.1070 347° North 233 268 7,800 -1,158 Descending FlightAware
10:17PM -7.2450 -35.1140 348° North 232 267 7,100 -1,259 Descending FlightAware
10:18PM -7.1940 -35.1240 349° North 233 268 6,100 -1,315 Descending FlightAware
10:19PM -7.1670 -35.1300 348° North 233 268 5,500 -1,200 Descending FlightAware
10:19PM -7.1550 -35.1320 351° North 233 268 5,300 -293 Descending FlightAware
10:19PM -7.1330 -35.1370 347° North 233 268 5,300  Level FlightAware
10:22PM -7.1484 -34.9507 95° East  Level Estimated
10:23PM -7.1484 -34.9507 225° Southwest  Level Estimated
10:24PM -7.1484 -34.9507 225° Southwest  Level Estimated
10:25PM -7.1484 -34.9507 225° Southwest  Level Estimated
10:26PM -7.1484 -34.9507 225° Southwest  Level Estimated
10:27PM -7.1484 -34.9507 225° Southwest  Level Estimated
10:28PM -7.1484 -34.9507 225° Southwest  Level Estimated
10:29PM -7.1484 -34.9507 225° Southwest  Level Estimated
10:30PM -7.1484 -34.9507 225° Southwest  Level Estimated
10:31PM -7.1484 -34.9507 225° Southwest  Level Estimated
10:32PM -7.1484 -34.9507 225° Southwest  Level Estimated
10:33PM -7.1484 -34.9507 225° Southwest  Level Estimated
10:34PM -7.1484 -34.9507 225° Southwest  Level Estimated
10:35PM -7.1484 -34.9507 225° Southwest  Level Estimated
10:36PM -7.1484 -34.9507 225° Southwest  Level Estimated